Time;durP1;ratioP1;P1;durP2;ratioP2;P2;SDS_P1;SDS_P2;PMS_P1;PMS_P2;Temp;Humidity;BMP_temperature;BMP_pressure;BME280_temperature;BME280_humidity;BME280_pressure;Samples;Min_cycle;Max_cycle;Signal;HPM_P1;HPM_P2
2021/06/01 05:59:11;;;;;;;17.48;8.65;;;;;;;;;;5027177;28;20975;-66
2021/06/01 06:01:37;;;;;;;17.58;9.90;;;;;;;;;;5004208;28;20031;-66
2021/06/01 06:04:03;;;;;;;16.83;9.95;;;;;;;;;;5004101;28;20030;-64
2021/06/01 06:06:29;;;;;;;14.90;8.80;;;;;;;;;;5000170;28;20103;-64
2021/06/01 06:08:56;;;;;;;16.77;10.07;;;;;;;;;;5014693;28;20041;-64
2021/06/01 06:11:22;;;;;;;18.17;10.48;;;;;;;;;;5015274;28;20101;-64
2021/06/01 06:13:48;;;;;;;15.40;9.70;;;;;;;;;;5023509;28;20046;-64
2021/06/01 06:16:18;;;;;;;14.50;9.82;;;;;;;;;;5013225;28;20034;-64
2021/06/01 06:18:51;;;;;;;15.18;10.30;;;;;;;;;;5020235;28;20064;-64
2021/06/01 06:21:17;;;;;;;18.33;10.15;;;;;;;;;;5022970;28;20040;-64
2021/06/01 06:23:43;;;;;;;17.50;11.00;;;;;;;;;;5008266;28;20515;-66
2021/06/01 06:26:10;;;;;;;17.90;9.82;;;;;;;;;;5008632;28;20068;-66
2021/06/01 06:28:37;;;;;;;15.23;9.95;;;;;;;;;;5005048;28;20029;-66
2021/06/01 06:31:03;;;;;;;15.75;10.20;;;;;;;;;;5023450;28;20030;-66
2021/06/01 06:33:29;;;;;;;17.52;10.55;;;;;;;;;;5032096;28;20117;-66
2021/06/01 06:35:55;;;;;;;17.20;9.90;;;;;;;;;;5020556;28;20018;-66
2021/06/01 06:38:21;;;;;;;19.48;11.43;;;;;;;;;;5004908;28;20119;-66
2021/06/01 06:43:20;;;;;;;15.10;9.95;;;;;;;;;;5013189;28;20027;-64
2021/06/01 06:45:47;;;;;;;19.52;12.00;;;;;;;;;;4999929;28;20455;-64
2021/06/01 06:48:13;;;;;;;19.98;10.90;;;;;;;;;;5017818;28;20045;-66
2021/06/01 06:50:40;;;;;;;19.17;11.65;;;;;;;;;;5015890;28;20114;-65
2021/06/01 06:53:06;;;;;;;19.20;10.52;;;;;;;;;;5006296;28;20638;-65
2021/06/01 06:55:33;;;;;;;16.30;11.68;;;;;;;;;;5002034;28;20026;-65
2021/06/01 06:57:59;;;;;;;16.05;10.18;;;;;;;;;;4999621;28;20193;-66
2021/06/01 07:00:25;;;;;;;21.42;11.48;;;;;;;;;;5028025;28;20062;-65
2021/06/01 07:02:51;;;;;;;18.80;10.88;;;;;;;;;;4999305;28;20029;-65
2021/06/01 07:05:19;;;;;;;18.92;10.68;;;;;;;;;;5008836;28;20030;-66
2021/06/01 07:07:46;;;;;;;18.23;11.23;;;;;;;;;;5021011;28;20141;-66
2021/06/01 07:10:13;;;;;;;18.20;11.95;;;;;;;;;;5009423;28;20025;-65
2021/06/01 07:12:43;;;;;;;18.08;10.85;;;;;;;;;;5016343;28;20095;-65
2021/06/01 07:15:15;;;;;;;18.23;10.80;;;;;;;;;;4992528;28;20015;-65
2021/06/01 07:17:44;;;;;;;;;;;;;;;;;;4991960;28;20034;-65
2021/06/01 07:20:11;;;;;;;18.42;11.00;;;;;;;;;;4993954;28;19909;-65
2021/06/01 07:22:37;;;;;;;17.00;12.48;;;;;;;;;;5001457;28;20036;-65
2021/06/01 07:25:04;;;;;;;17.88;11.98;;;;;;;;;;4995022;28;20508;-65
2021/06/01 07:27:30;;;;;;;19.38;12.30;;;;;;;;;;5015071;28;20034;-65
2021/06/01 07:29:56;;;;;;;18.45;12.07;;;;;;;;;;5005977;28;20079;-65
2021/06/01 07:32:23;;;;;;;18.95;11.15;;;;;;;;;;5009573;28;20022;-65
2021/06/01 07:34:49;;;;;;;16.42;11.07;;;;;;;;;;4988443;28;20022;-65
2021/06/01 07:37:16;;;;;;;22.15;11.10;;;;;;;;;;5015823;28;20095;-65
2021/06/01 07:39:42;;;;;;;20.25;12.50;;;;;;;;;;4999731;28;20069;-65
2021/06/01 07:42:09;;;;;;;18.65;11.98;;;;;;;;;;5030223;28;20043;-65
2021/06/01 07:44:35;;;;;;;16.20;11.02;;;;;;;;;;4988276;28;20034;-66
2021/06/01 07:47:01;;;;;;;17.58;11.13;;;;;;;;;;4990024;28;20030;-65
2021/06/01 07:49:27;;;;;;;17.05;10.20;;;;;;;;;;5024447;28;20027;-65
2021/06/01 07:51:53;;;;;;;16.65;10.55;;;;;;;;;;5009471;28;20390;-65
2021/06/01 07:54:19;;;;;;;16.45;9.65;;;;;;;;;;4991947;28;20015;-65
2021/06/01 07:56:45;;;;;;;15.23;9.77;;;;;;;;;;4987821;28;20030;-66
2021/06/01 07:59:12;;;;;;;13.98;9.32;;;;;;;;;;4985319;28;20035;-66
2021/06/01 08:01:39;;;;;;;15.20;8.60;;;;;;;;;;4989442;28;20038;-65
2021/06/01 08:04:05;;;;;;;14.18;8.93;;;;;;;;;;4984773;28;20517;-66
2021/06/01 08:06:36;;;;;;;14.13;9.27;;;;;;;;;;5003141;28;20084;-65
2021/06/01 08:09:03;;;;;;;15.73;9.47;;;;;;;;;;4986125;28;20079;-66
2021/06/01 08:11:29;;;;;;;14.95;9.32;;;;;;;;;;4987075;28;20261;-66
2021/06/01 08:13:55;;;;;;;11.73;8.10;;;;;;;;;;4987449;28;20049;-66
2021/06/01 08:16:21;;;;;;;13.93;8.90;;;;;;;;;;4984951;28;20030;-66
2021/06/01 08:19:00;;;;;;;16.50;9.07;;;;;;;;;;4986573;28;20022;-65
2021/06/01 08:21:39;;;;;;;14.68;8.23;;;;;;;;;;4997646;28;20159;-65
2021/06/01 08:24:05;;;;;;;14.02;8.55;;;;;;;;;;4986588;28;20022;-66
2021/06/01 08:26:31;;;;;;;14.52;8.20;;;;;;;;;;4988896;28;20038;-65
2021/06/01 08:28:57;;;;;;;13.40;7.82;;;;;;;;;;4985017;28;20021;-65
2021/06/01 08:31:23;;;;;;;13.05;8.52;;;;;;;;;;4990385;28;20027;-65
2021/06/01 08:33:49;;;;;;;14.15;8.10;;;;;;;;;;4984567;28;20018;-65
2021/06/01 08:36:15;;;;;;;14.82;8.77;;;;;;;;;;4985084;28;20015;-65
2021/06/01 08:38:41;;;;;;;12.80;8.68;;;;;;;;;;4983744;28;21767;-65
2021/06/01 08:41:11;;;;;;;15.00;9.30;;;;;;;;;;4994475;28;20041;-65
2021/06/01 08:43:37;;;;;;;14.88;9.32;;;;;;;;;;5013976;28;20038;-66
2021/06/01 08:46:03;;;;;;;14.18;9.07;;;;;;;;;;4987503;28;20034;-65
2021/06/01 08:48:32;;;;;;;13.77;8.82;;;;;;;;;;4987980;28;20034;-65
2021/06/01 08:50:58;;;;;;;13.75;6.95;;;;;;;;;;4989537;28;20025;-65
2021/06/01 08:53:24;;;;;;;11.07;5.57;;;;;;;;;;5022404;28;20422;-65
2021/06/01 08:55:51;;;;;;;12.98;7.65;;;;;;;;;;5024880;28;20020;-64
2021/06/01 08:58:21;;;;;;;13.98;7.93;;;;;;;;;;5024490;28;20044;-65
2021/06/01 09:00:47;;;;;;;14.70;7.78;;;;;;;;;;4995959;28;20084;-65
2021/06/01 09:03:16;;;;;;;14.02;8.45;;;;;;;;;;4999013;28;20054;-65
2021/06/01 09:06:06;;;;;;;14.50;8.10;;;;;;;;;;4991118;28;20705;-66
2021/06/01 09:08:52;;;;;;;12.45;7.13;;;;;;;;;;4986382;28;20035;-65
2021/06/01 09:22:30;;;;;;;12.65;6.72;;;;;;;;;;4977320;28;20073;-66
2021/06/01 09:25:00;;;;;;;10.75;6.13;;;;;;;;;;4984763;28;20039;-66
2021/06/01 09:27:29;;;;;;;10.52;6.78;;;;;;;;;;5000195;28;20038;-66
2021/06/01 09:29:55;;;;;;;11.85;5.97;;;;;;;;;;4983481;28;20031;-66
2021/06/01 09:32:22;;;;;;;10.52;6.00;;;;;;;;;;4976650;28;20031;-65
2021/06/01 09:34:50;;;;;;;11.50;5.53;;;;;;;;;;4987871;28;20030;-66
2021/06/01 09:37:21;;;;;;;10.05;6.30;;;;;;;;;;4980137;28;20031;-66
2021/06/01 09:40:01;;;;;;;14.50;6.17;;;;;;;;;;4989958;28;20114;-66
2021/06/01 09:42:31;;;;;;;12.88;7.47;;;;;;;;;;5019939;28;20552;-65
2021/06/01 09:45:05;;;;;;;16.63;8.38;;;;;;;;;;5006113;28;20038;-66
2021/06/01 09:47:42;;;;;;;14.15;7.72;;;;;;;;;;4982417;28;20088;-66
2021/06/01 09:50:19;;;;;;;14.52;8.23;;;;;;;;;;4983782;28;20057;-66
2021/06/01 09:52:50;;;;;;;12.52;6.93;;;;;;;;;;4977058;28;20041;-65
2021/06/01 09:55:27;;;;;;;9.85;6.82;;;;;;;;;;4979150;28;20501;-65
2021/06/01 09:57:53;;;;;;;11.13;7.93;;;;;;;;;;4980098;28;20077;-66
2021/06/01 10:00:27;;;;;;;14.77;8.15;;;;;;;;;;4963612;28;20039;-66
2021/06/01 10:03:03;;;;;;;13.07;7.68;;;;;;;;;;4968537;28;20053;-66
2021/06/01 10:05:31;;;;;;;11.00;8.02;;;;;;;;;;4966133;28;20034;-67
2021/06/01 10:07:59;;;;;;;17.45;11.93;;;;;;;;;;4967450;28;20023;-66
2021/06/01 10:10:26;;;;;;;18.88;11.57;;;;;;;;;;4967299;28;20022;-66
2021/06/01 10:12:56;;;;;;;14.77;9.75;;;;;;;;;;4964828;28;20027;-65
2021/06/01 10:15:24;;;;;;;12.80;8.07;;;;;;;;;;4967813;28;20038;-66
2021/06/01 10:17:50;;;;;;;12.40;6.35;;;;;;;;;;4965672;28;20058;-67
2021/06/01 10:20:18;;;;;;;10.90;5.97;;;;;;;;;;4965593;28;20026;-68
2021/06/01 10:22:44;;;;;;;7.47;3.78;;;;;;;;;;4964536;28;20089;-69
2021/06/01 10:25:11;;;;;;;8.35;3.97;;;;;;;;;;4967252;28;20038;-65
2021/06/01 10:27:37;;;;;;;8.30;3.72;;;;;;;;;;4981596;28;20027;-66
2021/06/01 10:30:05;;;;;;;6.97;3.95;;;;;;;;;;4965849;28;20039;-65
2021/06/01 10:32:32;;;;;;;8.38;3.88;;;;;;;;;;4962797;28;20031;-65
2021/06/01 10:34:58;;;;;;;7.53;4.15;;;;;;;;;;4977019;28;20015;-65
2021/06/01 10:48:48;;;;;;;9.57;4.45;;;;;;;;;;4986014;28;20462;-65
2021/06/01 10:51:27;;;;;;;9.23;4.00;;;;;;;;;;4968205;28;20015;-65
2021/06/01 10:53:53;;;;;;;6.18;4.20;;;;;;;;;;4971492;28;20068;-65
2021/06/01 10:56:19;;;;;;;8.93;4.57;;;;;;;;;;4987738;28;20478;-66
2021/06/01 10:58:47;;;;;;;10.10;4.28;;;;;;;;;;4977640;28;20055;-65
2021/06/01 11:04:20;;;;;;;9.02;4.60;;;;;;;;;;4969983;28;20091;-64
2021/06/01 11:06:54;;;;;;;8.70;4.35;;;;;;;;;;4963181;28;20039;-69
2021/06/01 11:09:37;;;;;;;8.07;4.25;;;;;;;;;;4970638;28;20023;-67
2021/06/01 11:12:09;;;;;;;8.65;3.80;;;;;;;;;;4954549;28;20490;-65
2021/06/01 11:14:35;;;;;;;7.47;4.60;;;;;;;;;;4964378;28;20015;-71
2021/06/01 11:17:01;;;;;;;6.93;4.07;;;;;;;;;;4968206;28;20100;-65
2021/06/01 11:19:49;;;;;;;7.20;4.22;;;;;;;;;;4966710;28;20162;-68
2021/06/01 11:22:25;;;;;;;8.63;4.90;;;;;;;;;;4967254;28;20501;-66
2021/06/01 11:33:24;;;;;;;6.28;3.72;;;;;;;;;;4969819;28;20029;-65
2021/06/01 11:35:54;;;;;;;6.93;3.88;;;;;;;;;;4961162;28;20032;-68
2021/06/01 11:38:24;;;;;;;7.10;3.22;;;;;;;;;;4966486;28;20035;-67
2021/06/01 11:43:19;;;;;;;9.20;4.28;;;;;;;;;;4986957;28;20415;-66
2021/06/01 11:46:00;;;;;;;6.22;3.33;;;;;;;;;;4990085;28;20019;-66
2021/06/01 11:51:23;;;;;;;8.50;3.47;;;;;;;;;;4992075;28;20038;-66
2021/06/01 11:54:07;;;;;;;6.90;3.50;;;;;;;;;;4968778;28;20057;-66
2021/06/01 11:57:08;;;;;;;5.80;3.20;;;;;;;;;;4981830;28;20023;-68
2021/06/01 12:18:03;;;;;;;5.18;3.25;;;;;;;;;;4962693;28;20570;-66
2021/06/01 12:20:29;;;;;;;7.30;3.45;;;;;;;;;;4965447;28;20505;-68
2021/06/01 12:22:55;;;;;;;6.53;2.97;;;;;;;;;;4967327;28;20486;-67
2021/06/01 12:25:21;;;;;;;7.85;3.47;;;;;;;;;;4966909;28;20316;-67
2021/06/01 12:28:17;;;;;;;7.75;3.00;;;;;;;;;;4967033;28;20027;-67
2021/06/01 12:33:37;;;;;;;8.32;3.58;;;;;;;;;;4944166;28;20035;-67
2021/06/01 12:42:03;;;;;;;5.43;3.08;;;;;;;;;;4963716;28;20039;-67
2021/06/01 12:44:38;;;;;;;5.30;3.17;;;;;;;;;;4964350;28;20043;-68
2021/06/01 13:20:15;;;;;;;3.53;2.38;;;;;;;;;;4982297;28;20041;-75
2021/06/01 13:23:53;;;;;;;5.10;2.60;;;;;;;;;;4976594;28;20053;-66
2021/06/01 13:39:59;;;;;;;3.53;2.08;;;;;;;;;;4976474;28;20095;-66
2021/06/01 13:48:34;;;;;;;8.05;3.10;;;;;;;;;;4984519;28;20042;-66
2021/06/01 13:50:53;;;;;;;7.45;2.92;;;;;;;;;;4987472;28;20040;-67
2021/06/01 13:56:03;;;;;;;4.35;2.80;;;;;;;;;;5003718;28;20028;-67
2021/06/01 14:30:22;;;;;;;8.27;2.25;;;;;;;;;;4985415;28;20033;-67
2021/06/01 15:04:10;;;;;;;5.68;2.38;;;;;;;;;;4984885;28;20518;-71
2021/06/01 15:09:46;;;;;;;6.40;2.22;;;;;;;;;;4998406;28;20076;-66
2021/06/01 15:55:55;;;;;;;3.80;2.33;;;;;;;;;;4988675;28;20034;-65
2021/06/01 16:23:09;;;;;;;4.88;2.20;;;;;;;;;;4982209;28;20087;-65
2021/06/01 16:31:19;;;;;;;4.78;2.35;;;;;;;;;;4989573;28;20101;-65
2021/06/01 17:03:39;;;;;;;4.78;2.30;;;;;;;;;;4988346;28;20049;-65
2021/06/01 17:06:16;;;;;;;5.82;2.30;;;;;;;;;;4985950;28;20486;-66
2021/06/01 17:11:19;;;;;;;6.32;2.90;;;;;;;;;;4977206;28;20042;-65
2021/06/01 17:13:59;;;;;;;6.00;2.50;;;;;;;;;;4979148;28;20015;-65
2021/06/01 17:16:53;;;;;;;5.57;2.58;;;;;;;;;;4974548;28;20109;-65
2021/06/01 17:35:43;;;;;;;6.65;2.40;;;;;;;;;;4983440;28;20041;-65
2021/06/01 17:38:10;;;;;;;8.82;3.03;;;;;;;;;;4982262;28;20027;-66
2021/06/01 17:40:38;;;;;;;6.70;2.80;;;;;;;;;;4975162;28;20031;-65
2021/06/01 17:43:09;;;;;;;7.35;2.92;;;;;;;;;;4979486;28;20084;-65
2021/06/01 17:45:46;;;;;;;8.73;3.03;;;;;;;;;;4987517;28;20018;-65
2021/06/01 17:48:35;;;;;;;5.25;2.75;;;;;;;;;;4993403;28;20030;-65
2021/06/01 17:51:05;;;;;;;7.05;2.45;;;;;;;;;;4997092;28;20328;-65
2021/06/01 17:53:32;;;;;;;7.00;2.40;;;;;;;;;;4981700;28;20106;-65
2021/06/01 17:55:59;;;;;;;5.78;2.55;;;;;;;;;;4986478;28;20018;-65
2021/06/01 17:58:25;;;;;;;6.07;2.50;;;;;;;;;;4987815;28;20061;-65
2021/06/01 18:00:51;;;;;;;8.50;2.30;;;;;;;;;;4992499;28;20034;-65
2021/06/01 18:03:18;;;;;;;7.05;2.28;;;;;;;;;;4993740;28;20030;-65
2021/06/01 18:05:47;;;;;;;6.20;2.92;;;;;;;;;;4980081;28;20493;-65
2021/06/01 18:08:22;;;;;;;6.95;2.70;;;;;;;;;;4987883;28;20042;-64
2021/06/01 18:11:30;;;;;;;5.07;2.45;;;;;;;;;;4995021;28;20030;-65
2021/06/01 18:36:35;;;;;;;6.78;2.47;;;;;;;;;;4993741;28;20515;-65
2021/06/01 19:25:02;;;;;;;12.30;3.70;;;;;;;;;;4989469;28;20444;-65
2021/06/01 19:50:10;;;;;;;9.70;5.72;;;;;;;;;;4978924;28;20044;-64
2021/06/01 19:52:37;;;;;;;9.38;4.72;;;;;;;;;;4979846;28;20015;-64
2021/06/01 19:55:04;;;;;;;14.02;5.95;;;;;;;;;;4978029;28;20056;-64
2021/06/01 19:57:30;;;;;;;9.05;4.78;;;;;;;;;;4984144;28;20505;-64
2021/06/01 19:59:57;;;;;;;8.65;5.32;;;;;;;;;;4986616;28;20042;-65
2021/06/01 20:02:26;;;;;;;9.30;5.50;;;;;;;;;;4980638;28;20041;-64
2021/06/01 20:04:52;;;;;;;9.50;5.28;;;;;;;;;;4980334;28;20110;-65
2021/06/01 20:07:20;;;;;;;10.10;5.45;;;;;;;;;;4977566;28;20088;-65
2021/06/01 20:09:46;;;;;;;11.60;5.70;;;;;;;;;;4982324;28;20037;-64
2021/06/01 20:12:12;;;;;;;8.98;5.32;;;;;;;;;;4978923;28;20022;-64
2021/06/01 20:14:39;;;;;;;13.50;6.20;;;;;;;;;;4982252;28;20417;-64
2021/06/01 20:17:08;;;;;;;13.90;6.22;;;;;;;;;;4980515;28;20026;-64
2021/06/01 20:19:37;;;;;;;10.27;5.97;;;;;;;;;;4979366;28;20512;-64
2021/06/01 20:22:03;;;;;;;10.50;5.88;;;;;;;;;;4981046;28;20024;-64
2021/06/01 20:24:32;;;;;;;13.15;5.85;;;;;;;;;;4977709;28;20027;-64
2021/06/01 20:27:00;;;;;;;9.77;5.80;;;;;;;;;;4981279;28;20504;-64
2021/06/01 20:29:31;;;;;;;11.55;6.07;;;;;;;;;;4981260;28;20121;-64
2021/06/01 20:33:06;;;;;;;10.52;5.57;;;;;;;;;;4980300;28;20041;-64
2021/06/01 20:34:45;;;;;;;10.75;5.75;;;;;;;;;;4977541;28;20038;-64
2021/06/01 20:37:11;;;;;;;12.43;5.82;;;;;;;;;;4981535;28;20026;-64
2021/06/01 20:39:41;;;;;;;8.85;5.07;;;;;;;;;;4980233;28;20038;-64
2021/06/01 20:42:07;;;;;;;10.05;5.45;;;;;;;;;;4984029;28;20145;-64
2021/06/01 20:44:34;;;;;;;9.95;5.15;;;;;;;;;;4982386;28;20033;-64
2021/06/01 20:47:00;;;;;;;7.85;4.68;;;;;;;;;;4979186;28;20023;-64
2021/06/01 20:49:27;;;;;;;9.43;4.93;;;;;;;;;;4984259;28;20031;-64
2021/06/01 20:51:53;;;;;;;9.45;5.18;;;;;;;;;;4985988;28;20073;-65
2021/06/01 20:54:20;;;;;;;10.75;5.03;;;;;;;;;;4986374;28;20029;-65
2021/06/01 20:56:47;;;;;;;9.63;5.45;;;;;;;;;;4995028;28;20022;-64
2021/06/01 20:59:14;;;;;;;10.13;4.82;;;;;;;;;;4992769;28;20034;-65
2021/06/01 21:01:41;;;;;;;13.07;4.80;;;;;;;;;;4983331;28;20026;-65
2021/06/01 21:04:07;;;;;;;8.85;5.50;;;;;;;;;;4989975;28;20027;-65
2021/06/01 21:06:34;;;;;;;7.10;4.15;;;;;;;;;;4985942;28;20039;-65
2021/06/01 21:09:00;;;;;;;5.82;3.97;;;;;;;;;;4981213;28;20114;-64
2021/06/01 21:11:27;;;;;;;10.93;4.97;;;;;;;;;;4984913;28;20026;-65
2021/06/01 21:13:53;;;;;;;11.13;5.25;;;;;;;;;;4984207;28;20027;-65
2021/06/01 21:16:19;;;;;;;9.30;4.25;;;;;;;;;;4989813;28;20076;-64
2021/06/01 21:18:45;;;;;;;7.97;4.72;;;;;;;;;;4999749;28;20026;-64
2021/06/01 21:21:12;;;;;;;8.27;4.95;;;;;;;;;;4988571;28;20032;-65
2021/06/01 21:23:39;;;;;;;8.68;4.32;;;;;;;;;;5008978;28;20034;-64
2021/06/01 21:26:05;;;;;;;10.45;4.80;;;;;;;;;;4990527;28;20508;-65
2021/06/01 21:28:32;;;;;;;10.13;4.55;;;;;;;;;;4994015;28;20038;-65
2021/06/01 21:30:59;;;;;;;7.75;4.43;;;;;;;;;;4989795;28;20080;-65
2021/06/01 21:33:34;;;;;;;8.63;4.38;;;;;;;;;;4986440;28;20041;-65
2021/06/01 21:36:03;;;;;;;9.43;4.35;;;;;;;;;;4991473;28;20042;-65
2021/06/01 21:38:31;;;;;;;7.80;4.05;;;;;;;;;;4980157;28;20023;-64
2021/06/01 21:40:57;;;;;;;7.80;4.32;;;;;;;;;;4979825;28;20536;-64
2021/06/01 21:43:24;;;;;;;6.80;4.20;;;;;;;;;;4979217;28;20034;-65
2021/06/01 21:45:51;;;;;;;6.90;4.07;;;;;;;;;;4981379;28;20493;-65
2021/06/01 21:48:17;;;;;;;7.88;4.55;;;;;;;;;;4978804;28;20059;-65
2021/06/01 21:50:44;;;;;;;11.55;5.13;;;;;;;;;;4978853;28;20110;-65
2021/06/01 21:53:15;;;;;;;10.98;4.20;;;;;;;;;;4975412;28;20045;-64
2021/06/01 21:55:41;;;;;;;8.07;4.15;;;;;;;;;;4980193;28;20023;-64
2021/06/01 21:58:08;;;;;;;9.90;4.88;;;;;;;;;;4977874;28;20771;-64
2021/06/01 22:00:39;;;;;;;6.68;4.30;;;;;;;;;;4995338;28;20060;-64
2021/06/01 22:03:06;;;;;;;12.27;4.35;;;;;;;;;;5015419;28;20528;-64
2021/06/01 22:05:33;;;;;;;6.63;4.30;;;;;;;;;;4997368;28;20030;-64
2021/06/01 22:07:59;;;;;;;7.38;4.70;;;;;;;;;;4984643;28;20042;-64
2021/06/01 22:10:25;;;;;;;8.85;4.85;;;;;;;;;;4983095;28;20176;-64
2021/06/01 22:12:53;;;;;;;9.98;4.93;;;;;;;;;;4984356;28;20041;-64
2021/06/01 22:18:08;;;;;;;9.75;4.90;;;;;;;;;;4984013;28;20757;-64
2021/06/01 22:20:35;;;;;;;10.70;4.45;;;;;;;;;;4983821;28;20224;-64
2021/06/01 22:23:01;;;;;;;8.45;5.03;;;;;;;;;;4983582;28;20026;-64
2021/06/01 22:25:28;;;;;;;10.77;4.82;;;;;;;;;;4982450;28;20088;-64
2021/06/01 22:27:54;;;;;;;8.50;4.15;;;;;;;;;;4982890;28;20042;-64
2021/06/01 22:30:21;;;;;;;7.28;4.00;;;;;;;;;;4984934;28;20084;-64
2021/06/01 22:32:47;;;;;;;7.93;4.47;;;;;;;;;;4987247;28;20022;-64
2021/06/01 22:35:14;;;;;;;7.95;4.05;;;;;;;;;;4990780;28;20034;-64
2021/06/01 22:37:40;;;;;;;7.85;4.65;;;;;;;;;;4989347;28;20048;-64
2021/06/01 22:40:08;;;;;;;10.45;4.60;;;;;;;;;;4989806;28;20027;-64
2021/06/01 22:42:34;;;;;;;7.22;4.13;;;;;;;;;;4989002;28;20030;-64
2021/06/01 22:45:04;;;;;;;11.43;4.90;;;;;;;;;;4986593;28;20026;-64
2021/06/01 22:47:31;;;;;;;8.80;4.32;;;;;;;;;;4990425;28;20053;-64
2021/06/01 22:49:57;;;;;;;6.53;4.40;;;;;;;;;;4989548;28;20486;-64
2021/06/01 22:52:23;;;;;;;7.35;4.05;;;;;;;;;;4987652;28;20022;-64
2021/06/01 22:54:50;;;;;;;7.20;4.53;;;;;;;;;;4996726;28;20027;-64
2021/06/01 22:57:16;;;;;;;10.32;4.85;;;;;;;;;;4988636;28;20034;-64
2021/06/01 22:59:46;;;;;;;9.27;5.10;;;;;;;;;;4990728;28;20061;-64
2021/06/01 23:02:14;;;;;;;10.95;5.03;;;;;;;;;;4991803;28;20030;-64
2021/06/01 23:04:41;;;;;;;7.38;4.70;;;;;;;;;;4989442;28;20029;-64
2021/06/01 23:07:08;;;;;;;10.35;4.90;;;;;;;;;;4991613;28;20035;-64
2021/06/01 23:09:37;;;;;;;9.65;4.90;;;;;;;;;;4988029;28;20497;-65
2021/06/01 23:12:05;;;;;;;9.70;5.38;;;;;;;;;;4989640;28;20092;-64
2021/06/01 23:14:31;;;;;;;8.57;5.38;;;;;;;;;;4988279;28;20030;-64
2021/06/01 23:16:57;;;;;;;8.45;5.47;;;;;;;;;;4989705;28;20019;-64
2021/06/01 23:19:23;;;;;;;7.35;4.72;;;;;;;;;;4986521;28;20027;-64
2021/06/01 23:21:53;;;;;;;8.02;5.22;;;;;;;;;;4989760;28;20112;-64
2021/06/01 23:24:20;;;;;;;9.00;4.63;;;;;;;;;;4987375;28;20022;-64
2021/06/01 23:26:47;;;;;;;9.65;5.40;;;;;;;;;;4991473;28;20029;-64
2021/06/01 23:29:14;;;;;;;11.98;5.65;;;;;;;;;;4988870;28;20026;-64
2021/06/01 23:31:41;;;;;;;9.93;5.65;;;;;;;;;;4989092;28;20033;-64
2021/06/01 23:34:08;;;;;;;12.38;5.72;;;;;;;;;;4988581;28;20551;-64
2021/06/01 23:36:34;;;;;;;10.88;5.53;;;;;;;;;;4985793;28;20042;-64
2021/06/01 23:39:03;;;;;;;10.13;5.50;;;;;;;;;;4989593;28;20029;-64
2021/06/01 23:41:29;;;;;;;9.85;5.65;;;;;;;;;;4987460;28;20113;-64
2021/06/01 23:43:55;;;;;;;13.05;6.35;;;;;;;;;;4988218;28;20035;-64
2021/06/01 23:46:21;;;;;;;11.35;6.45;;;;;;;;;;4987205;28;20544;-64
2021/06/01 23:51:32;;;;;;;14.25;6.95;;;;;;;;;;4988630;28;20049;-64
2021/06/01 23:53:58;;;;;;;11.30;6.88;;;;;;;;;;4985361;28;20183;-63
2021/06/01 23:56:24;;;;;;;8.80;5.25;;;;;;;;;;4988992;28;20210;-63
2021/06/01 23:58:50;;;;;;;12.45;5.97;;;;;;;;;;4987996;28;20042;-64
